sensor_id;sensor_type;location;lat;lon;timestamp;P1;durP1;ratioP1;P2;durP2;ratioP2
43702;SDS011;29304;56.146;40.396;2022-08-23T00:00:06;14.10;;;12.60;;
43702;SDS011;29304;56.146;40.396;2022-08-23T00:00:20;14.23;;;12.73;;
43702;SDS011;29304;56.146;40.396;2022-08-23T00:00:31;15.23;;;12.82;;
43702;SDS011;29304;56.146;40.396;2022-08-23T00:00:42;16.53;;;12.77;;
43702;SDS011;29304;56.146;40.396;2022-08-23T00:00:52;17.48;;;12.85;;
43702;SDS011;29304;56.146;40.396;2022-08-23T00:01:06;17.03;;;12.77;;
43702;SDS011;29304;56.146;40.396;2022-08-23T00:01:21;17.15;;;12.63;;
43702;SDS011;29304;56.146;40.396;2022-08-23T00:01:37;18.45;;;12.80;;
43702;SDS011;29304;56.146;40.396;2022-08-23T00:01:50;16.63;;;12.38;;
43702;SDS011;29304;56.146;40.396;2022-08-23T00:02:06;14.65;;;11.82;;
43702;SDS011;29304;56.146;40.396;2022-08-23T00:02:18;13.93;;;11.98;;
43702;SDS011;29304;56.146;40.396;2022-08-23T00:02:29;15.60;;;12.13;;
43702;SDS011;29304;56.146;40.396;2022-08-23T00:02:39;14.53;;;12.20;;
43702;SDS011;29304;56.146;40.396;2022-08-23T00:02:51;14.77;;;12.43;;
43702;SDS011;29304;56.146;40.396;2022-08-23T00:03:01;14.23;;;12.70;;
43702;SDS011;29304;56.146;40.396;2022-08-23T00:03:12;15.00;;;12.77;;
43702;SDS011;29304;56.146;40.396;2022-08-23T00:03:22;15.43;;;12.48;;
43702;SDS011;29304;56.146;40.396;2022-08-23T00:03:33;15.17;;;12.07;;
43702;SDS011;29304;56.146;40.396;2022-08-23T00:03:43;15.50;;;12.10;;
43702;SDS011;29304;56.146;40.396;2022-08-23T00:03:54;14.70;;;12.20;;
43702;SDS011;29304;56.146;40.396;2022-08-23T00:04:10;15.75;;;12.20;;
43702;SDS011;29304;56.146;40.396;2022-08-23T00:04:24;16.52;;;12.48;;
43702;SDS011;29304;56.146;40.396;2022-08-23T00:04:39;15.57;;;12.18;;
43702;SDS011;29304;56.146;40.396;2022-08-23T00:04:50;15.05;;;12.18;;
43702;SDS011;29304;56.146;40.396;2022-08-23T00:05:01;14.35;;;12.20;;
43702;SDS011;29304;56.146;40.396;2022-08-23T00:05:13;13.98;;;12.45;;
43702;SDS011;29304;56.146;40.396;2022-08-23T00:05:23;14.63;;;11.97;;
43702;SDS011;29304;56.146;40.396;2022-08-23T00:05:34;15.38;;;12.15;;
43702;SDS011;29304;56.146;40.396;2022-08-23T00:05:44;15.87;;;11.83;;
43702;SDS011;29304;56.146;40.396;2022-08-23T00:05:55;16.25;;;12.43;;
43702;SDS011;29304;56.146;40.396;2022-08-23T00:06:05;15.53;;;12.80;;
43702;SDS011;29304;56.146;40.396;2022-08-23T00:06:16;14.85;;;13.10;;
43702;SDS011;29304;56.146;40.396;2022-08-23T00:06:27;14.07;;;12.57;;
43702;SDS011;29304;56.146;40.396;2022-08-23T00:06:38;14.07;;;12.45;;
43702;SDS011;29304;56.146;40.396;2022-08-23T00:06:49;13.90;;;12.40;;
43702;SDS011;29304;56.146;40.396;2022-08-23T00:07:02;15.25;;;12.40;;
43702;SDS011;29304;56.146;40.396;2022-08-23T00:07:14;16.90;;;12.85;;
43702;SDS011;29304;56.146;40.396;2022-08-23T00:07:25;15.63;;;13.05;;
43702;SDS011;29304;56.146;40.396;2022-08-23T00:07:38;15.75;;;13.00;;
43702;SDS011;29304;56.146;40.396;2022-08-23T00:07:50;13.85;;;12.40;;
43702;SDS011;29304;56.146;40.396;2022-08-23T00:08:01;14.63;;;12.60;;
43702;SDS011;29304;56.146;40.396;2022-08-23T00:08:11;15.07;;;12.38;;
43702;SDS011;29304;56.146;40.396;2022-08-23T00:08:22;16.70;;;12.33;;
43702;SDS011;29304;56.146;40.396;2022-08-23T00:08:33;15.63;;;12.15;;
43702;SDS011;29304;56.146;40.396;2022-08-23T00:08:44;14.40;;;11.98;;
43702;SDS011;29304;56.146;40.396;2022-08-23T00:08:55;13.30;;;11.90;;
43702;SDS011;29304;56.146;40.396;2022-08-23T00:09:05;14.05;;;12.30;;
43702;SDS011;29304;56.146;40.396;2022-08-23T00:09:17;15.25;;;12.98;;
43702;SDS011;29304;56.146;40.396;2022-08-23T00:09:30;16.08;;;13.23;;
43702;SDS011;29304;56.146;40.396;2022-08-23T00:09:40;15.35;;;12.95;;
43702;SDS011;29304;56.146;40.396;2022-08-23T00:09:51;15.23;;;12.67;;
43702;SDS011;29304;56.146;40.396;2022-08-23T00:10:01;16.00;;;12.95;;
43702;SDS011;29304;56.146;40.396;2022-08-23T00:10:14;18.73;;;13.27;;
43702;SDS011;29304;56.146;40.396;2022-08-23T00:10:25;17.73;;;13.35;;
43702;SDS011;29304;56.146;40.396;2022-08-23T00:10:36;18.55;;;13.43;;
43702;SDS011;29304;56.146;40.396;2022-08-23T00:10:46;16.23;;;13.33;;
43702;SDS011;29304;56.146;40.396;2022-08-23T00:10:57;16.37;;;13.33;;
43702;SDS011;29304;56.146;40.396;2022-08-23T00:11:30;14.43;;;12.93;;
43702;SDS011;29304;56.146;40.396;2022-08-23T00:11:51;14.45;;;12.73;;
43702;SDS011;29304;56.146;40.396;2022-08-23T00:12:19;17.70;;;12.85;;
43702;SDS011;29304;56.146;40.396;2022-08-23T00:12:30;15.68;;;13.07;;
43702;SDS011;29304;56.146;40.396;2022-08-23T00:12:42;14.48;;;13.07;;
43702;SDS011;29304;56.146;40.396;2022-08-23T00:12:54;14.20;;;12.80;;
43702;SDS011;29304;56.146;40.396;2022-08-23T00:13:04;14.57;;;12.77;;
43702;SDS011;29304;56.146;40.396;2022-08-23T00:13:14;15.00;;;12.73;;
43702;SDS011;29304;56.146;40.396;2022-08-23T00:13:26;15.30;;;12.75;;
43702;SDS011;29304;56.146;40.396;2022-08-23T00:13:37;14.13;;;12.68;;
43702;SDS011;29304;56.146;40.396;2022-08-23T00:13:48;14.10;;;12.60;;
43702;SDS011;29304;56.146;40.396;2022-08-23T00:14:00;14.20;;;12.70;;
43702;SDS011;29304;56.146;40.396;2022-08-23T00:14:16;14.30;;;12.70;;
43702;SDS011;29304;56.146;40.396;2022-08-23T00:14:30;14.63;;;12.55;;
43702;SDS011;29304;56.146;40.396;2022-08-23T00:14:47;15.80;;;12.38;;
43702;SDS011;29304;56.146;40.396;2022-08-23T00:15:00;16.58;;;12.70;;
43702;SDS011;29304;56.146;40.396;2022-08-23T00:15:12;16.50;;;12.95;;
43702;SDS011;29304;56.146;40.396;2022-08-23T00:15:24;14.75;;;12.70;;
43702;SDS011;29304;56.146;40.396;2022-08-23T00:15:34;14.10;;;12.60;;
43702;SDS011;29304;56.146;40.396;2022-08-23T00:15:45;14.10;;;12.63;;
43702;SDS011;29304;56.146;40.396;2022-08-23T00:15:55;14.00;;;12.50;;
43702;SDS011;29304;56.146;40.396;2022-08-23T00:16:06;14.90;;;12.33;;
43702;SDS011;29304;56.146;40.396;2022-08-23T00:16:16;17.07;;;12.73;;
43702;SDS011;29304;56.146;40.396;2022-08-23T00:16:27;16.33;;;13.05;;
43702;SDS011;29304;56.146;40.396;2022-08-23T00:16:37;16.70;;;13.40;;
43702;SDS011;29304;56.146;40.396;2022-08-23T00:16:50;16.05;;;12.95;;
43702;SDS011;29304;56.146;40.396;2022-08-23T00:17:00;15.73;;;12.50;;
43702;SDS011;29304;56.146;40.396;2022-08-23T00:17:11;15.02;;;12.40;;
43702;SDS011;29304;56.146;40.396;2022-08-23T00:17:23;14.23;;;12.70;;
43702;SDS011;29304;56.146;40.396;2022-08-23T00:17:33;14.40;;;12.75;;
43702;SDS011;29304;56.146;40.396;2022-08-23T00:17:43;15.27;;;12.90;;
43702;SDS011;29304;56.146;40.396;2022-08-23T00:17:54;14.52;;;12.95;;
43702;SDS011;29304;56.146;40.396;2022-08-23T00:18:04;17.23;;;13.30;;
43702;SDS011;29304;56.146;40.396;2022-08-23T00:18:15;17.30;;;13.27;;
43702;SDS011;29304;56.146;40.396;2022-08-23T00:18:27;16.45;;;13.05;;
43702;SDS011;29304;56.146;40.396;2022-08-23T00:18:37;15.10;;;12.93;;
43702;SDS011;29304;56.146;40.396;2022-08-23T00:18:48;15.73;;;13.13;;
43702;SDS011;29304;56.146;40.396;2022-08-23T00:18:58;15.73;;;13.05;;
43702;SDS011;29304;56.146;40.396;2022-08-23T00:19:09;15.90;;;13.23;;
43702;SDS011;29304;56.146;40.396;2022-08-23T00:19:22;14.45;;;12.95;;
43702;SDS011;29304;56.146;40.396;2022-08-23T00:19:33;14.20;;;12.80;;
43702;SDS011;29304;56.146;40.396;2022-08-23T00:19:44;14.30;;;12.55;;
43702;SDS011;29304;56.146;40.396;2022-08-23T00:19:55;15.43;;;12.88;;
43702;SDS011;29304;56.146;40.396;2022-08-23T00:20:06;15.23;;;13.02;;
43702;SDS011;29304;56.146;40.396;2022-08-23T00:20:18;14.70;;;13.15;;
43702;SDS011;29304;56.146;40.396;2022-08-23T00:20:29;14.20;;;12.70;;
43702;SDS011;29304;56.146;40.396;2022-08-23T00:20:39;15.20;;;12.53;;
43702;SDS011;29304;56.146;40.396;2022-08-23T00:20:50;15.13;;;12.65;;
43702;SDS011;29304;56.146;40.396;2022-08-23T00:21:00;15.87;;;12.90;;
43702;SDS011;29304;56.146;40.396;2022-08-23T00:21:11;15.30;;;12.85;;
43702;SDS011;29304;56.146;40.396;2022-08-23T00:21:22;15.50;;;13.05;;
43702;SDS011;29304;56.146;40.396;2022-08-23T00:21:35;16.90;;;13.35;;
43702;SDS011;29304;56.146;40.396;2022-08-23T00:21:47;16.40;;;13.63;;
43702;SDS011;29304;56.146;40.396;2022-08-23T00:21:58;15.05;;;13.23;;
43702;SDS011;29304;56.146;40.396;2022-08-23T00:22:09;14.30;;;12.80;;
43702;SDS011;29304;56.146;40.396;2022-08-23T00:22:21;14.77;;;12.25;;
43702;SDS011;29304;56.146;40.396;2022-08-23T00:22:31;14.38;;;12.20;;
43702;SDS011;29304;56.146;40.396;2022-08-23T00:22:42;13.90;;;12.10;;
43702;SDS011;29304;56.146;40.396;2022-08-23T00:22:52;13.88;;;12.40;;
43702;SDS011;29304;56.146;40.396;2022-08-23T00:23:03;14.23;;;12.70;;
43702;SDS011;29304;56.146;40.396;2022-08-23T00:23:13;15.32;;;13.20;;
43702;SDS011;29304;56.146;40.396;2022-08-23T00:23:24;16.37;;;13.00;;
43702;SDS011;29304;56.146;40.396;2022-08-23T00:23:34;17.37;;;13.13;;
43702;SDS011;29304;56.146;40.396;2022-08-23T00:23:45;16.25;;;12.82;;
43702;SDS011;29304;56.146;40.396;2022-08-23T00:23:55;16.42;;;12.77;;
43702;SDS011;29304;56.146;40.396;2022-08-23T00:24:06;15.73;;;12.77;;
43702;SDS011;29304;56.146;40.396;2022-08-23T00:24:18;16.02;;;12.90;;
43702;SDS011;29304;56.146;40.396;2022-08-23T00:24:28;15.90;;;12.70;;
43702;SDS011;29304;56.146;40.396;2022-08-23T00:24:39;15.38;;;12.63;;
43702;SDS011;29304;56.146;40.396;2022-08-23T00:24:50;15.45;;;12.88;;
43702;SDS011;29304;56.146;40.396;2022-08-23T00:25:00;14.77;;;13.07;;
43702;SDS011;29304;56.146;40.396;2022-08-23T00:25:11;14.97;;;13.30;;
43702;SDS011;29304;56.146;40.396;2022-08-23T00:25:23;14.27;;;12.68;;
43702;SDS011;29304;56.146;40.396;2022-08-23T00:25:33;16.38;;;12.45;;
43702;SDS011;29304;56.146;40.396;2022-08-23T00:25:44;15.03;;;12.23;;
43702;SDS011;29304;56.146;40.396;2022-08-23T00:25:54;15.68;;;12.75;;
43702;SDS011;29304;56.146;40.396;2022-08-23T00:26:04;15.43;;;12.90;;
43702;SDS011;29304;56.146;40.396;2022-08-23T00:26:15;16.75;;;13.25;;
43702;SDS011;29304;56.146;40.396;2022-08-23T00:26:26;17.40;;;13.30;;
43702;SDS011;29304;56.146;40.396;2022-08-23T00:26:58;17.98;;;13.48;;
43702;SDS011;29304;56.146;40.396;2022-08-23T00:27:12;19.55;;;13.80;;
43702;SDS011;29304;56.146;40.396;2022-08-23T00:27:24;19.23;;;13.25;;
43702;SDS011;29304;56.146;40.396;2022-08-23T00:27:36;17.15;;;12.88;;
43702;SDS011;29304;56.146;40.396;2022-08-23T00:27:46;15.17;;;13.00;;
43702;SDS011;29304;56.146;40.396;2022-08-23T00:27:56;15.00;;;13.00;;
43702;SDS011;29304;56.146;40.396;2022-08-23T00:28:07;14.73;;;12.65;;
43702;SDS011;29304;56.146;40.396;2022-08-23T00:28:18;15.80;;;12.82;;
43702;SDS011;29304;56.146;40.396;2022-08-23T00:28:29;16.10;;;13.13;;
43702;SDS011;29304;56.146;40.396;2022-08-23T00:28:40;15.93;;;13.40;;
43702;SDS011;29304;56.146;40.396;2022-08-23T00:28:50;15.40;;;13.43;;
43702;SDS011;29304;56.146;40.396;2022-08-23T00:29:01;15.27;;;12.98;;
43702;SDS011;29304;56.146;40.396;2022-08-23T00:29:11;14.85;;;12.80;;
43702;SDS011;29304;56.146;40.396;2022-08-23T00:29:23;15.37;;;12.97;;
43702;SDS011;29304;56.146;40.396;2022-08-23T00:29:38;16.85;;;13.35;;
43702;SDS011;29304;56.146;40.396;2022-08-23T00:29:56;17.20;;;13.48;;
43702;SDS011;29304;56.146;40.396;2022-08-23T00:30:08;15.73;;;13.10;;
43702;SDS011;29304;56.146;40.396;2022-08-23T00:30:21;17.88;;;13.18;;
43702;SDS011;29304;56.146;40.396;2022-08-23T00:30:32;18.10;;;13.13;;
43702;SDS011;29304;56.146;40.396;2022-08-23T00:30:42;16.77;;;13.15;;
43702;SDS011;29304;56.146;40.396;2022-08-23T00:30:53;17.00;;;13.23;;
43702;SDS011;29304;56.146;40.396;2022-08-23T00:31:03;17.38;;;13.43;;
43702;SDS011;29304;56.146;40.396;2022-08-23T00:31:14;17.63;;;13.77;;
43702;SDS011;29304;56.146;40.396;2022-08-23T00:31:28;15.55;;;12.82;;
43702;SDS011;29304;56.146;40.396;2022-08-23T00:31:40;14.57;;;12.38;;
43702;SDS011;29304;56.146;40.396;2022-08-23T00:31:51;14.00;;;12.48;;
43702;SDS011;29304;56.146;40.396;2022-08-23T00:32:02;14.63;;;12.80;;
43702;SDS011;29304;56.146;40.396;2022-08-23T00:32:14;17.40;;;13.00;;
43702;SDS011;29304;56.146;40.396;2022-08-23T00:32:28;18.63;;;13.48;;
43702;SDS011;29304;56.146;40.396;2022-08-23T00:32:41;19.00;;;13.05;;
43702;SDS011;29304;56.146;40.396;2022-08-23T00:32:52;16.70;;;12.48;;
43702;SDS011;29304;56.146;40.396;2022-08-23T00:33:03;16.30;;;12.80;;
43702;SDS011;29304;56.146;40.396;2022-08-23T00:33:13;16.65;;;13.00;;
43702;SDS011;29304;56.146;40.396;2022-08-23T00:33:24;17.60;;;13.13;;
43702;SDS011;29304;56.146;40.396;2022-08-23T00:33:35;16.73;;;12.93;;
43702;SDS011;29304;56.146;40.396;2022-08-23T00:33:45;16.25;;;12.95;;
43702;SDS011;29304;56.146;40.396;2022-08-23T00:33:55;16.30;;;13.10;;
43702;SDS011;29304;56.146;40.396;2022-08-23T00:34:06;15.75;;;13.32;;
43702;SDS011;29304;56.146;40.396;2022-08-23T00:34:17;15.35;;;13.27;;
43702;SDS011;29304;56.146;40.396;2022-08-23T00:34:27;16.73;;;13.03;;
43702;SDS011;29304;56.146;40.396;2022-08-23T00:34:38;15.82;;;12.80;;
43702;SDS011;29304;56.146;40.396;2022-08-23T00:34:49;17.95;;;13.20;;
43702;SDS011;29304;56.146;40.396;2022-08-23T00:35:00;17.90;;;13.67;;
43702;SDS011;29304;56.146;40.396;2022-08-23T00:35:12;18.27;;;13.85;;
43702;SDS011;29304;56.146;40.396;2022-08-23T00:35:23;17.92;;;13.60;;
43702;SDS011;29304;56.146;40.396;2022-08-23T00:35:34;19.30;;;13.52;;
43702;SDS011;29304;56.146;40.396;2022-08-23T00:35:44;20.20;;;13.17;;
43702;SDS011;29304;56.146;40.396;2022-08-23T00:35:55;20.33;;;13.27;;
43702;SDS011;29304;56.146;40.396;2022-08-23T00:36:05;18.67;;;13.07;;
43702;SDS011;29304;56.146;40.396;2022-08-23T00:36:16;16.67;;;13.07;;
43702;SDS011;29304;56.146;40.396;2022-08-23T00:36:26;15.40;;;12.87;;
43702;SDS011;29304;56.146;40.396;2022-08-23T00:36:37;16.20;;;12.83;;
43702;SDS011;29304;56.146;40.396;2022-08-23T00:36:48;17.52;;;13.25;;
43702;SDS011;29304;56.146;40.396;2022-08-23T00:37:00;17.63;;;13.35;;
43702;SDS011;29304;56.146;40.396;2022-08-23T00:37:11;17.40;;;13.70;;
43702;SDS011;29304;56.146;40.396;2022-08-23T00:37:21;16.00;;;13.63;;
43702;SDS011;29304;56.146;40.396;2022-08-23T00:37:32;14.90;;;13.30;;
43702;SDS011;29304;56.146;40.396;2022-08-23T00:37:43;15.20;;;13.25;;
43702;SDS011;29304;56.146;40.396;2022-08-23T00:37:54;16.07;;;13.17;;
43702;SDS011;29304;56.146;40.396;2022-08-23T00:38:07;16.65;;;13.02;;
43702;SDS011;29304;56.146;40.396;2022-08-23T00:38:18;16.88;;;12.93;;
43702;SDS011;29304;56.146;40.396;2022-08-23T00:38:28;15.50;;;13.23;;
43702;SDS011;29304;56.146;40.396;2022-08-23T00:38:39;14.77;;;13.23;;
43702;SDS011;29304;56.146;40.396;2022-08-23T00:38:49;15.00;;;13.40;;
43702;SDS011;29304;56.146;40.396;2022-08-23T00:39:00;15.13;;;13.53;;
43702;SDS011;29304;56.146;40.396;2022-08-23T00:39:10;16.00;;;13.77;;
43702;SDS011;29304;56.146;40.396;2022-08-23T00:39:21;16.47;;;13.90;;
43702;SDS011;29304;56.146;40.396;2022-08-23T00:39:32;18.10;;;14.07;;
43702;SDS011;29304;56.146;40.396;2022-08-23T00:39:42;17.65;;;13.70;;
43702;SDS011;29304;56.146;40.396;2022-08-23T00:39:54;14.82;;;13.25;;
43702;SDS011;29304;56.146;40.396;2022-08-23T00:40:05;14.35;;;12.90;;
43702;SDS011;29304;56.146;40.396;2022-08-23T00:40:18;15.15;;;12.98;;
43702;SDS011;29304;56.146;40.396;2022-08-23T00:40:28;17.95;;;13.35;;
43702;SDS011;29304;56.146;40.396;2022-08-23T00:40:39;16.87;;;13.37;;
43702;SDS011;29304;56.146;40.396;2022-08-23T00:41:00;14.63;;;13.07;;
43702;SDS011;29304;56.146;40.396;2022-08-23T00:41:11;14.68;;;13.00;;
43702;SDS011;29304;56.146;40.396;2022-08-23T00:41:22;15.00;;;13.27;;
43702;SDS011;29304;56.146;40.396;2022-08-23T00:41:32;15.50;;;13.10;;
43702;SDS011;29304;56.146;40.396;2022-08-23T00:41:44;16.30;;;13.32;;
43702;SDS011;29304;56.146;40.396;2022-08-23T00:42:01;16.92;;;13.18;;
43702;SDS011;29304;56.146;40.396;2022-08-23T00:43:41;16.48;;;13.18;;
43702;SDS011;29304;56.146;40.396;2022-08-23T00:44:13;16.25;;;13.23;;
43702;SDS011;29304;56.146;40.396;2022-08-23T00:44:49;16.38;;;13.38;;
43702;SDS011;29304;56.146;40.396;2022-08-23T00:45:21;16.05;;;13.38;;
43702;SDS011;29304;56.146;40.396;2022-08-23T00:46:40;15.40;;;13.10;;
43702;SDS011;29304;56.146;40.396;2022-08-23T00:47:17;18.00;;;13.35;;
43702;SDS011;29304;56.146;40.396;2022-08-23T00:47:48;16.13;;;13.27;;
43702;SDS011;29304;56.146;40.396;2022-08-23T00:48:00;16.42;;;12.88;;
43702;SDS011;29304;56.146;40.396;2022-08-23T00:48:13;15.07;;;12.95;;
43702;SDS011;29304;56.146;40.396;2022-08-23T00:48:25;15.32;;;13.15;;
43702;SDS011;29304;56.146;40.396;2022-08-23T00:48:36;15.25;;;13.13;;
43702;SDS011;29304;56.146;40.396;2022-08-23T00:48:47;15.60;;;13.40;;
43702;SDS011;29304;56.146;40.396;2022-08-23T00:48:58;16.80;;;13.48;;
43702;SDS011;29304;56.146;40.396;2022-08-23T00:49:12;15.45;;;13.32;;
43702;SDS011;29304;56.146;40.396;2022-08-23T00:49:25;15.15;;;12.88;;
43702;SDS011;29304;56.146;40.396;2022-08-23T00:49:38;17.63;;;13.13;;
43702;SDS011;29304;56.146;40.396;2022-08-23T00:49:52;18.70;;;13.43;;
43702;SDS011;29304;56.146;40.396;2022-08-23T00:51:32;14.50;;;13.00;;
43702;SDS011;29304;56.146;40.396;2022-08-23T00:52:27;18.63;;;13.40;;
43702;SDS011;29304;56.146;40.396;2022-08-23T00:53:21;17.95;;;13.82;;
43702;SDS011;29304;56.146;40.396;2022-08-23T00:53:38;15.55;;;13.10;;
43702;SDS011;29304;56.146;40.396;2022-08-23T00:53:53;14.98;;;13.15;;
43702;SDS011;29304;56.146;40.396;2022-08-23T00:54:05;16.13;;;13.05;;
43702;SDS011;29304;56.146;40.396;2022-08-23T00:54:19;15.50;;;12.80;;
43702;SDS011;29304;56.146;40.396;2022-08-23T00:54:32;16.15;;;12.98;;
43702;SDS011;29304;56.146;40.396;2022-08-23T00:54:45;16.42;;;13.25;;
43702;SDS011;29304;56.146;40.396;2022-08-23T00:54:56;15.52;;;13.40;;
43702;SDS011;29304;56.146;40.396;2022-08-23T00:55:07;14.88;;;13.27;;
43702;SDS011;29304;56.146;40.396;2022-08-23T00:55:18;15.43;;;13.20;;
43702;SDS011;29304;56.146;40.396;2022-08-23T00:55:30;15.55;;;13.23;;
43702;SDS011;29304;56.146;40.396;2022-08-23T00:55:43;15.20;;;13.40;;
43702;SDS011;29304;56.146;40.396;2022-08-23T00:55:55;15.20;;;13.70;;
43702;SDS011;29304;56.146;40.396;2022-08-23T00:56:10;14.82;;;13.25;;
43702;SDS011;29304;56.146;40.396;2022-08-23T00:56:23;15.32;;;12.98;;
43702;SDS011;29304;56.146;40.396;2022-08-23T00:56:36;15.60;;;12.90;;
43702;SDS011;29304;56.146;40.396;2022-08-23T00:56:48;15.05;;;13.05;;
43702;SDS011;29304;56.146;40.396;2022-08-23T00:57:00;14.73;;;13.13;;
43702;SDS011;29304;56.146;40.396;2022-08-23T00:57:15;14.80;;;13.30;;
43702;SDS011;29304;56.146;40.396;2022-08-23T00:57:28;15.50;;;13.30;;
43702;SDS011;29304;56.146;40.396;2022-08-23T00:57:40;18.10;;;13.20;;
43702;SDS011;29304;56.146;40.396;2022-08-23T00:57:50;17.23;;;13.40;;
43702;SDS011;29304;56.146;40.396;2022-08-23T00:58:01;16.25;;;13.32;;
43702;SDS011;29304;56.146;40.396;2022-08-23T00:58:13;15.93;;;13.55;;
43702;SDS011;29304;56.146;40.396;2022-08-23T00:58:27;16.25;;;13.38;;
43702;SDS011;29304;56.146;40.396;2022-08-23T00:58:38;17.25;;;13.52;;
43702;SDS011;29304;56.146;40.396;2022-08-23T00:58:49;16.95;;;13.63;;
43702;SDS011;29304;56.146;40.396;2022-08-23T00:59:00;17.83;;;13.20;;
43702;SDS011;29304;56.146;40.396;2022-08-23T00:59:11;17.30;;;12.52;;
43702;SDS011;29304;56.146;40.396;2022-08-23T00:59:22;15.30;;;12.68;;
43702;SDS011;29304;56.146;40.396;2022-08-23T00:59:33;16.05;;;12.98;;
43702;SDS011;29304;56.146;40.396;2022-08-23T00:59:44;17.33;;;13.53;;
43702;SDS011;29304;56.146;40.396;2022-08-23T00:59:55;19.45;;;13.55;;
43702;SDS011;29304;56.146;40.396;2022-08-23T01:00:06;17.30;;;13.48;;
43702;SDS011;29304;56.146;40.396;2022-08-23T01:00:18;15.00;;;13.05;;
43702;SDS011;29304;56.146;40.396;2022-08-23T01:00:28;15.27;;;13.20;;
43702;SDS011;29304;56.146;40.396;2022-08-23T01:00:39;15.48;;;13.05;;
43702;SDS011;29304;56.146;40.396;2022-08-23T01:00:50;14.77;;;13.05;;
43702;SDS011;29304;56.146;40.396;2022-08-23T01:01:04;14.85;;;13.35;;
43702;SDS011;29304;56.146;40.396;2022-08-23T01:01:15;15.35;;;13.75;;
43702;SDS011;29304;56.146;40.396;2022-08-23T01:01:25;15.18;;;13.65;;
43702;SDS011;29304;56.146;40.396;2022-08-23T01:01:36;14.98;;;13.45;;
43702;SDS011;29304;56.146;40.396;2022-08-23T01:01:47;15.05;;;13.45;;
43702;SDS011;29304;56.146;40.396;2022-08-23T01:01:59;15.40;;;13.05;;
43702;SDS011;29304;56.146;40.396;2022-08-23T01:02:10;16.85;;;13.30;;
43702;SDS011;29304;56.146;40.396;2022-08-23T01:02:22;18.17;;;13.32;;
43702;SDS011;29304;56.146;40.396;2022-08-23T01:02:32;17.58;;;13.27;;
43702;SDS011;29304;56.146;40.396;2022-08-23T01:02:43;16.17;;;12.80;;
43702;SDS011;29304;56.146;40.396;2022-08-23T01:02:57;15.38;;;12.82;;
43702;SDS011;29304;56.146;40.396;2022-08-23T01:03:08;16.42;;;13.05;;
43702;SDS011;29304;56.146;40.396;2022-08-23T01:03:21;16.95;;;13.52;;
43702;SDS011;29304;56.146;40.396;2022-08-23T01:03:35;15.98;;;13.43;;
43702;SDS011;29304;56.146;40.396;2022-08-23T01:03:50;15.13;;;13.23;;
43702;SDS011;29304;56.146;40.396;2022-08-23T01:04:02;14.45;;;12.95;;
43702;SDS011;29304;56.146;40.396;2022-08-23T01:04:13;14.43;;;12.95;;
43702;SDS011;29304;56.146;40.396;2022-08-23T01:04:30;15.63;;;13.10;;
43702;SDS011;29304;56.146;40.396;2022-08-23T01:04:45;19.33;;;13.70;;
43702;SDS011;29304;56.146;40.396;2022-08-23T01:05:04;17.33;;;13.73;;
43702;SDS011;29304;56.146;40.396;2022-08-23T01:05:15;16.75;;;13.38;;
43702;SDS011;29304;56.146;40.396;2022-08-23T01:05:29;16.73;;;13.65;;
43702;SDS011;29304;56.146;40.396;2022-08-23T01:06:25;14.63;;;13.15;;
43702;SDS011;29304;56.146;40.396;2022-08-23T01:06:44;16.42;;;13.77;;
43702;SDS011;29304;56.146;40.396;2022-08-23T01:07:14;16.67;;;13.45;;
43702;SDS011;29304;56.146;40.396;2022-08-23T01:07:55;15.32;;;12.88;;
43702;SDS011;29304;56.146;40.396;2022-08-23T01:08:08;14.95;;;13.10;;
43702;SDS011;29304;56.146;40.396;2022-08-23T01:08:20;14.83;;;13.27;;
43702;SDS011;29304;56.146;40.396;2022-08-23T01:08:33;15.07;;;13.27;;
43702;SDS011;29304;56.146;40.396;2022-08-23T01:08:47;15.20;;;13.57;;
43702;SDS011;29304;56.146;40.396;2022-08-23T01:09:09;15.75;;;13.82;;
43702;SDS011;29304;56.146;40.396;2022-08-23T01:09:23;16.70;;;13.60;;
43702;SDS011;29304;56.146;40.396;2022-08-23T01:09:33;18.08;;;13.43;;
43702;SDS011;29304;56.146;40.396;2022-08-23T01:09:47;16.67;;;13.07;;
43702;SDS011;29304;56.146;40.396;2022-08-23T01:10:07;16.50;;;12.70;;
43702;SDS011;29304;56.146;40.396;2022-08-23T01:10:26;17.27;;;13.05;;
43702;SDS011;29304;56.146;40.396;2022-08-23T01:10:47;15.73;;;13.63;;
43702;SDS011;29304;56.146;40.396;2022-08-23T01:11:10;14.73;;;13.00;;
43702;SDS011;29304;56.146;40.396;2022-08-23T01:11:29;15.30;;;13.57;;
43702;SDS011;29304;56.146;40.396;2022-08-23T01:11:51;15.50;;;13.90;;
43702;SDS011;29304;56.146;40.396;2022-08-23T01:12:13;14.77;;;13.27;;
43702;SDS011;29304;56.146;40.396;2022-08-23T01:12:31;15.20;;;13.40;;
43702;SDS011;29304;56.146;40.396;2022-08-23T01:12:49;15.25;;;13.35;;
43702;SDS011;29304;56.146;40.396;2022-08-23T01:13:06;15.20;;;13.60;;
43702;SDS011;29304;56.146;40.396;2022-08-23T01:13:22;15.02;;;13.55;;
43702;SDS011;29304;56.146;40.396;2022-08-23T01:13:49;14.70;;;13.30;;
43702;SDS011;29304;56.146;40.396;2022-08-23T01:14:09;15.15;;;13.63;;
43702;SDS011;29304;56.146;40.396;2022-08-23T01:14:45;14.82;;;13.27;;
43702;SDS011;29304;56.146;40.396;2022-08-23T01:15:04;15.02;;;13.43;;
43702;SDS011;29304;56.146;40.396;2022-08-23T01:15:23;16.17;;;14.02;;
43702;SDS011;29304;56.146;40.396;2022-08-23T01:15:40;17.15;;;13.70;;
43702;SDS011;29304;56.146;40.396;2022-08-23T01:15:56;16.55;;;13.65;;
43702;SDS011;29304;56.146;40.396;2022-08-23T01:16:13;16.73;;;13.60;;
43702;SDS011;29304;56.146;40.396;2022-08-23T01:16:31;18.23;;;13.43;;
43702;SDS011;29304;56.146;40.396;2022-08-23T01:16:54;17.00;;;13.20;;
43702;SDS011;29304;56.146;40.396;2022-08-23T01:17:22;17.13;;;13.93;;
43702;SDS011;29304;56.146;40.396;2022-08-23T01:17:45;16.17;;;13.52;;
43702;SDS011;29304;56.146;40.396;2022-08-23T01:18:03;16.30;;;13.30;;
43702;SDS011;29304;56.146;40.396;2022-08-23T01:18:18;16.35;;;13.55;;
43702;SDS011;29304;56.146;40.396;2022-08-23T01:18:33;15.60;;;13.85;;
43702;SDS011;29304;56.146;40.396;2022-08-23T01:18:44;15.88;;;14.05;;
43702;SDS011;29304;56.146;40.396;2022-08-23T01:18:56;16.45;;;14.27;;
43702;SDS011;29304;56.146;40.396;2022-08-23T01:19:10;18.13;;;14.38;;
43702;SDS011;29304;56.146;40.396;2022-08-23T01:19:29;19.55;;;14.32;;
43702;SDS011;29304;56.146;40.396;2022-08-23T01:19:51;16.80;;;13.60;;
43702;SDS011;29304;56.146;40.396;2022-08-23T01:20:06;15.85;;;14.23;;
43702;SDS011;29304;56.146;40.396;2022-08-23T01:20:22;16.95;;;14.20;;
43702;SDS011;29304;56.146;40.396;2022-08-23T01:20:37;16.42;;;13.88;;
43702;SDS011;29304;56.146;40.396;2022-08-23T01:21:56;16.90;;;14.35;;
43702;SDS011;29304;56.146;40.396;2022-08-23T01:22:42;16.38;;;13.60;;
43702;SDS011;29304;56.146;40.396;2022-08-23T01:23:07;16.13;;;13.50;;
43702;SDS011;29304;56.146;40.396;2022-08-23T01:23:56;14.95;;;13.45;;
43702;SDS011;29304;56.146;40.396;2022-08-23T01:24:09;14.70;;;13.20;;